sensor_id;sensor_type;location;lat;lon;timestamp;P1;durP1;ratioP1;P2;durP2;ratioP2
1134;SDS011;556;53.550;10.048;2022-09-01T00:00:50;15.67;;;15.07;;
1134;SDS011;556;53.550;10.048;2022-09-01T00:03:17;14.50;;;14.10;;
1134;SDS011;556;53.550;10.048;2022-09-01T00:05:48;14.63;;;14.23;;
1134;SDS011;556;53.550;10.048;2022-09-01T00:08:19;14.20;;;13.80;;
1134;SDS011;556;53.550;10.048;2022-09-01T00:10:47;13.80;;;13.40;;
1134;SDS011;556;53.550;10.048;2022-09-01T00:13:16;14.30;;;13.80;;
1134;SDS011;556;53.550;10.048;2022-09-01T00:15:43;14.00;;;13.60;;
1134;SDS011;556;53.550;10.048;2022-09-01T00:18:11;15.03;;;14.53;;
1134;SDS011;556;53.550;10.048;2022-09-01T00:20:40;15.30;;;14.70;;
1134;SDS011;556;53.550;10.048;2022-09-01T00:23:08;14.03;;;13.63;;
1134;SDS011;556;53.550;10.048;2022-09-01T00:25:36;14.40;;;14.00;;
1134;SDS011;556;53.550;10.048;2022-09-01T00:28:03;13.37;;;12.97;;
1134;SDS011;556;53.550;10.048;2022-09-01T00:30:33;13.60;;;13.20;;
1134;SDS011;556;53.550;10.048;2022-09-01T00:33:00;13.40;;;13.03;;
1134;SDS011;556;53.550;10.048;2022-09-01T00:35:27;14.30;;;13.90;;
1134;SDS011;556;53.550;10.048;2022-09-01T00:37:55;15.17;;;14.57;;
1134;SDS011;556;53.550;10.048;2022-09-01T00:40:22;14.43;;;14.03;;
1134;SDS011;556;53.550;10.048;2022-09-01T00:42:49;15.60;;;15.20;;
1134;SDS011;556;53.550;10.048;2022-09-01T00:45:18;14.60;;;14.20;;
1134;SDS011;556;53.550;10.048;2022-09-01T00:47:47;14.70;;;14.30;;
1134;SDS011;556;53.550;10.048;2022-09-01T00:50:16;16.00;;;14.70;;
1134;SDS011;556;53.550;10.048;2022-09-01T00:52:45;14.80;;;14.40;;
1134;SDS011;556;53.550;10.048;2022-09-01T00:55:16;14.80;;;14.40;;
1134;SDS011;556;53.550;10.048;2022-09-01T00:57:47;15.53;;;15.03;;
1134;SDS011;556;53.550;10.048;2022-09-01T01:00:15;14.30;;;13.90;;
1134;SDS011;556;53.550;10.048;2022-09-01T01:02:44;14.83;;;14.40;;
1134;SDS011;556;53.550;10.048;2022-09-01T01:05:15;13.57;;;13.13;;
1134;SDS011;556;53.550;10.048;2022-09-01T01:07:42;14.47;;;13.97;;
1134;SDS011;556;53.550;10.048;2022-09-01T01:10:12;14.47;;;14.00;;
1134;SDS011;556;53.550;10.048;2022-09-01T01:12:41;13.87;;;13.47;;
1134;SDS011;556;53.550;10.048;2022-09-01T01:15:10;12.80;;;12.50;;
1134;SDS011;556;53.550;10.048;2022-09-01T01:17:38;14.50;;;13.73;;
1134;SDS011;556;53.550;10.048;2022-09-01T01:20:06;14.20;;;13.80;;
1134;SDS011;556;53.550;10.048;2022-09-01T01:22:55;14.07;;;13.57;;
1134;SDS011;556;53.550;10.048;2022-09-01T01:25:36;14.03;;;13.63;;
1134;SDS011;556;53.550;10.048;2022-09-01T01:28:06;13.80;;;13.30;;
1134;SDS011;556;53.550;10.048;2022-09-01T01:30:37;13.73;;;13.33;;
1134;SDS011;556;53.550;10.048;2022-09-01T01:33:06;13.30;;;13.00;;
1134;SDS011;556;53.550;10.048;2022-09-01T01:35:34;13.40;;;13.00;;
1134;SDS011;556;53.550;10.048;2022-09-01T01:38:03;13.37;;;12.97;;
1134;SDS011;556;53.550;10.048;2022-09-01T01:40:36;13.97;;;13.57;;
1134;SDS011;556;53.550;10.048;2022-09-01T01:43:07;13.43;;;12.93;;
1134;SDS011;556;53.550;10.048;2022-09-01T01:45:37;14.20;;;13.80;;
1134;SDS011;556;53.550;10.048;2022-09-01T01:48:04;14.20;;;13.20;;
1134;SDS011;556;53.550;10.048;2022-09-01T01:50:35;13.83;;;13.43;;
1134;SDS011;556;53.550;10.048;2022-09-01T01:53:05;13.40;;;12.90;;
1134;SDS011;556;53.550;10.048;2022-09-01T01:55:36;13.67;;;13.17;;
1134;SDS011;556;53.550;10.048;2022-09-01T01:58:03;13.30;;;12.93;;
1134;SDS011;556;53.550;10.048;2022-09-01T02:00:31;13.00;;;12.60;;
1134;SDS011;556;53.550;10.048;2022-09-01T02:03:03;13.13;;;12.73;;
1134;SDS011;556;53.550;10.048;2022-09-01T02:05:32;13.30;;;12.80;;
1134;SDS011;556;53.550;10.048;2022-09-01T02:08:04;12.63;;;12.33;;
1134;SDS011;556;53.550;10.048;2022-09-01T02:10:34;13.57;;;13.07;;
1134;SDS011;556;53.550;10.048;2022-09-01T02:13:06;12.90;;;12.50;;
1134;SDS011;556;53.550;10.048;2022-09-01T02:15:41;12.23;;;11.80;;
1134;SDS011;556;53.550;10.048;2022-09-01T02:18:11;12.50;;;12.20;;
1134;SDS011;556;53.550;10.048;2022-09-01T02:20:41;12.77;;;12.37;;
1134;SDS011;556;53.550;10.048;2022-09-01T02:23:09;12.70;;;12.40;;
1134;SDS011;556;53.550;10.048;2022-09-01T02:25:39;12.77;;;12.37;;
1134;SDS011;556;53.550;10.048;2022-09-01T02:28:10;12.83;;;12.33;;
1134;SDS011;556;53.550;10.048;2022-09-01T02:30:41;12.20;;;11.70;;
1134;SDS011;556;53.550;10.048;2022-09-01T02:33:12;12.33;;;12.00;;
1134;SDS011;556;53.550;10.048;2022-09-01T02:35:59;12.10;;;11.80;;
1134;SDS011;556;53.550;10.048;2022-09-01T02:38:28;11.80;;;11.50;;
1134;SDS011;556;53.550;10.048;2022-09-01T02:41:01;11.90;;;11.60;;
1134;SDS011;556;53.550;10.048;2022-09-01T02:43:29;11.20;;;10.90;;
1134;SDS011;556;53.550;10.048;2022-09-01T02:45:57;11.93;;;11.53;;
1134;SDS011;556;53.550;10.048;2022-09-01T02:48:27;11.70;;;11.10;;
1134;SDS011;556;53.550;10.048;2022-09-01T02:51:02;11.43;;;11.13;;
1134;SDS011;556;53.550;10.048;2022-09-01T02:53:30;11.40;;;11.03;;
1134;SDS011;556;53.550;10.048;2022-09-01T02:56:02;10.87;;;10.57;;
1134;SDS011;556;53.550;10.048;2022-09-01T02:58:34;12.23;;;10.97;;
1134;SDS011;556;53.550;10.048;2022-09-01T03:01:09;11.40;;;11.10;;
1134;SDS011;556;53.550;10.048;2022-09-01T03:03:38;11.00;;;10.60;;
1134;SDS011;556;53.550;10.048;2022-09-01T03:06:06;10.60;;;10.30;;
1134;SDS011;556;53.550;10.048;2022-09-01T03:08:34;10.53;;;10.23;;
1134;SDS011;556;53.550;10.048;2022-09-01T03:11:05;10.27;;;9.97;;
1134;SDS011;556;53.550;10.048;2022-09-01T03:13:35;10.60;;;10.30;;
1134;SDS011;556;53.550;10.048;2022-09-01T03:16:05;10.80;;;10.40;;
1134;SDS011;556;53.550;10.048;2022-09-01T03:18:33;11.10;;;10.60;;
1134;SDS011;556;53.550;10.048;2022-09-01T03:21:02;10.50;;;10.20;;
1134;SDS011;556;53.550;10.048;2022-09-01T03:23:30;9.90;;;9.60;;
1134;SDS011;556;53.550;10.048;2022-09-01T03:25:59;9.50;;;9.10;;
1134;SDS011;556;53.550;10.048;2022-09-01T03:28:28;9.60;;;9.30;;
1134;SDS011;556;53.550;10.048;2022-09-01T03:30:56;9.77;;;9.43;;
1134;SDS011;556;53.550;10.048;2022-09-01T03:33:25;9.20;;;9.00;;
1134;SDS011;556;53.550;10.048;2022-09-01T03:35:55;9.47;;;9.17;;
1134;SDS011;556;53.550;10.048;2022-09-01T03:38:23;10.20;;;9.70;;
1134;SDS011;556;53.550;10.048;2022-09-01T03:40:53;10.00;;;9.70;;
1134;SDS011;556;53.550;10.048;2022-09-01T03:43:24;9.20;;;8.90;;
1134;SDS011;556;53.550;10.048;2022-09-01T03:45:54;9.07;;;8.63;;
1134;SDS011;556;53.550;10.048;2022-09-01T03:48:25;8.63;;;8.43;;
1134;SDS011;556;53.550;10.048;2022-09-01T03:50:55;8.43;;;8.23;;
1134;SDS011;556;53.550;10.048;2022-09-01T03:53:28;8.03;;;7.83;;
1134;SDS011;556;53.550;10.048;2022-09-01T03:55:56;8.90;;;8.60;;
1134;SDS011;556;53.550;10.048;2022-09-01T03:58:24;8.63;;;8.43;;
1134;SDS011;556;53.550;10.048;2022-09-01T04:00:52;8.37;;;8.17;;
1134;SDS011;556;53.550;10.048;2022-09-01T04:03:27;9.10;;;8.50;;
1134;SDS011;556;53.550;10.048;2022-09-01T04:05:57;9.07;;;8.77;;
1134;SDS011;556;53.550;10.048;2022-09-01T04:08:25;9.90;;;9.37;;
1134;SDS011;556;53.550;10.048;2022-09-01T04:10:56;8.70;;;8.50;;
1134;SDS011;556;53.550;10.048;2022-09-01T04:13:29;7.73;;;7.50;;
1134;SDS011;556;53.550;10.048;2022-09-01T04:16:00;8.00;;;7.67;;
1134;SDS011;556;53.550;10.048;2022-09-01T04:18:35;8.83;;;8.53;;
1134;SDS011;556;53.550;10.048;2022-09-01T04:21:01;7.77;;;7.47;;
1134;SDS011;556;53.550;10.048;2022-09-01T04:23:32;8.20;;;7.90;;
1134;SDS011;556;53.550;10.048;2022-09-01T04:26:07;7.63;;;7.40;;
1134;SDS011;556;53.550;10.048;2022-09-01T04:28:39;7.30;;;7.10;;
1134;SDS011;556;53.550;10.048;2022-09-01T04:31:12;7.30;;;7.10;;
1134;SDS011;556;53.550;10.048;2022-09-01T04:33:43;8.00;;;7.60;;
1134;SDS011;556;53.550;10.048;2022-09-01T04:36:14;7.50;;;7.30;;
1134;SDS011;556;53.550;10.048;2022-09-01T04:38:45;8.17;;;7.87;;
1134;SDS011;556;53.550;10.048;2022-09-01T04:41:14;8.53;;;8.33;;
1134;SDS011;556;53.550;10.048;2022-09-01T04:43:42;7.27;;;7.07;;
1134;SDS011;556;53.550;10.048;2022-09-01T04:46:13;7.00;;;6.80;;
1134;SDS011;556;53.550;10.048;2022-09-01T04:48:41;6.70;;;6.50;;
1134;SDS011;556;53.550;10.048;2022-09-01T04:51:09;7.47;;;7.13;;
1134;SDS011;556;53.550;10.048;2022-09-01T04:53:50;6.60;;;6.40;;
1134;SDS011;556;53.550;10.048;2022-09-01T04:56:19;7.53;;;7.23;;
1134;SDS011;556;53.550;10.048;2022-09-01T04:59:03;6.47;;;6.30;;
1134;SDS011;556;53.550;10.048;2022-09-01T05:01:34;6.63;;;6.43;;
1134;SDS011;556;53.550;10.048;2022-09-01T05:04:08;6.10;;;5.80;;
1134;SDS011;556;53.550;10.048;2022-09-01T05:06:39;6.73;;;6.53;;
1134;SDS011;556;53.550;10.048;2022-09-01T05:09:08;6.33;;;6.17;;
1134;SDS011;556;53.550;10.048;2022-09-01T05:12:01;6.57;;;6.37;;
1134;SDS011;556;53.550;10.048;2022-09-01T05:14:36;6.00;;;5.80;;
1134;SDS011;556;53.550;10.048;2022-09-01T05:17:08;5.60;;;5.40;;
1134;SDS011;556;53.550;10.048;2022-09-01T05:19:37;6.30;;;6.10;;
1134;SDS011;556;53.550;10.048;2022-09-01T05:22:06;5.70;;;5.60;;
1134;SDS011;556;53.550;10.048;2022-09-01T05:24:37;5.73;;;5.50;;
1134;SDS011;556;53.550;10.048;2022-09-01T05:27:05;5.80;;;5.70;;
1134;SDS011;556;53.550;10.048;2022-09-01T05:29:36;5.93;;;5.70;;
1134;SDS011;556;53.550;10.048;2022-09-01T05:32:08;5.47;;;5.27;;
1134;SDS011;556;53.550;10.048;2022-09-01T05:34:37;5.43;;;5.30;;
1134;SDS011;556;53.550;10.048;2022-09-01T05:37:08;5.53;;;5.23;;
1134;SDS011;556;53.550;10.048;2022-09-01T05:39:37;6.10;;;5.70;;
1134;SDS011;556;53.550;10.048;2022-09-01T05:42:06;6.00;;;5.70;;
1134;SDS011;556;53.550;10.048;2022-09-01T05:44:35;5.73;;;5.53;;
1134;SDS011;556;53.550;10.048;2022-09-01T05:47:07;5.37;;;4.87;;
1134;SDS011;556;53.550;10.048;2022-09-01T05:49:36;5.47;;;5.30;;
1134;SDS011;556;53.550;10.048;2022-09-01T05:52:06;4.83;;;4.63;;
1134;SDS011;556;53.550;10.048;2022-09-01T05:54:36;4.80;;;4.70;;
1134;SDS011;556;53.550;10.048;2022-09-01T05:57:05;4.83;;;4.63;;
1134;SDS011;556;53.550;10.048;2022-09-01T05:59:33;4.93;;;4.83;;
1134;SDS011;556;53.550;10.048;2022-09-01T06:02:07;4.93;;;4.73;;
1134;SDS011;556;53.550;10.048;2022-09-01T06:04:36;5.07;;;4.77;;
1134;SDS011;556;53.550;10.048;2022-09-01T06:07:10;5.77;;;5.37;;
1134;SDS011;556;53.550;10.048;2022-09-01T06:09:42;5.10;;;4.80;;
1134;SDS011;556;53.550;10.048;2022-09-01T06:12:12;5.50;;;5.20;;
1134;SDS011;556;53.550;10.048;2022-09-01T06:14:46;12.73;;;6.00;;
1134;SDS011;556;53.550;10.048;2022-09-01T06:17:18;5.30;;;5.10;;
1134;SDS011;556;53.550;10.048;2022-09-01T06:19:49;7.30;;;5.70;;
1134;SDS011;556;53.550;10.048;2022-09-01T06:22:17;5.27;;;4.97;;
1134;SDS011;556;53.550;10.048;2022-09-01T06:24:46;5.10;;;4.90;;
1134;SDS011;556;53.550;10.048;2022-09-01T06:27:14;9.53;;;5.43;;
1134;SDS011;556;53.550;10.048;2022-09-01T06:29:42;5.20;;;5.00;;
1134;SDS011;556;53.550;10.048;2022-09-01T06:32:13;4.47;;;4.37;;
1134;SDS011;556;53.550;10.048;2022-09-01T06:34:42;6.17;;;5.87;;
1134;SDS011;556;53.550;10.048;2022-09-01T06:37:14;6.13;;;5.90;;
1134;SDS011;556;53.550;10.048;2022-09-01T06:39:47;5.70;;;5.50;;
1134;SDS011;556;53.550;10.048;2022-09-01T06:42:15;6.10;;;5.50;;
1134;SDS011;556;53.550;10.048;2022-09-01T06:44:52;5.10;;;4.80;;
1134;SDS011;556;53.550;10.048;2022-09-01T06:47:19;7.37;;;4.90;;
1134;SDS011;556;53.550;10.048;2022-09-01T06:49:48;4.70;;;4.43;;
1134;SDS011;556;53.550;10.048;2022-09-01T06:52:19;5.00;;;4.80;;
1134;SDS011;556;53.550;10.048;2022-09-01T06:54:48;4.60;;;4.50;;
1134;SDS011;556;53.550;10.048;2022-09-01T06:57:20;5.07;;;4.63;;
1134;SDS011;556;53.550;10.048;2022-09-01T06:59:49;5.13;;;4.83;;
1134;SDS011;556;53.550;10.048;2022-09-01T07:02:18;4.83;;;4.60;;
1134;SDS011;556;53.550;10.048;2022-09-01T07:05:17;7.23;;;6.53;;
1134;SDS011;556;53.550;10.048;2022-09-01T07:07:47;5.60;;;5.40;;
1134;SDS011;556;53.550;10.048;2022-09-01T07:10:38;7.03;;;5.17;;
1134;SDS011;556;53.550;10.048;2022-09-01T07:13:16;4.70;;;4.50;;
1134;SDS011;556;53.550;10.048;2022-09-01T07:15:50;12.20;;;6.97;;
1134;SDS011;556;53.550;10.048;2022-09-01T07:18:20;6.10;;;5.80;;
1134;SDS011;556;53.550;10.048;2022-09-01T07:20:51;5.73;;;5.53;;
1134;SDS011;556;53.550;10.048;2022-09-01T07:23:20;6.00;;;5.47;;
1134;SDS011;556;53.550;10.048;2022-09-01T07:25:49;5.23;;;5.03;;
1134;SDS011;556;53.550;10.048;2022-09-01T07:28:29;7.00;;;6.40;;
1134;SDS011;556;53.550;10.048;2022-09-01T07:30:58;5.53;;;5.23;;
1134;SDS011;556;53.550;10.048;2022-09-01T07:33:26;4.93;;;4.83;;
1134;SDS011;556;53.550;10.048;2022-09-01T07:35:57;5.10;;;5.00;;
1134;SDS011;556;53.550;10.048;2022-09-01T07:38:24;5.90;;;5.70;;
1134;SDS011;556;53.550;10.048;2022-09-01T07:40:52;6.13;;;5.87;;
1134;SDS011;556;53.550;10.048;2022-09-01T07:43:43;6.13;;;5.83;;
1134;SDS011;556;53.550;10.048;2022-09-01T07:46:45;5.70;;;5.50;;
1134;SDS011;556;53.550;10.048;2022-09-01T07:49:17;6.00;;;5.80;;
1134;SDS011;556;53.550;10.048;2022-09-01T07:51:47;5.37;;;5.07;;
1134;SDS011;556;53.550;10.048;2022-09-01T07:54:17;5.53;;;5.43;;
1134;SDS011;556;53.550;10.048;2022-09-01T07:56:47;6.30;;;5.90;;
1134;SDS011;556;53.550;10.048;2022-09-01T07:59:15;5.70;;;5.60;;
1134;SDS011;556;53.550;10.048;2022-09-01T08:01:53;6.20;;;6.00;;
1134;SDS011;556;53.550;10.048;2022-09-01T08:04:21;6.10;;;5.90;;
1134;SDS011;556;53.550;10.048;2022-09-01T08:06:51;7.33;;;6.80;;
1134;SDS011;556;53.550;10.048;2022-09-01T08:09:20;7.50;;;6.73;;
1134;SDS011;556;53.550;10.048;2022-09-01T08:11:47;7.07;;;6.87;;
1134;SDS011;556;53.550;10.048;2022-09-01T08:14:15;7.23;;;7.03;;
1134;SDS011;556;53.550;10.048;2022-09-01T08:16:42;7.67;;;7.47;;
1134;SDS011;556;53.550;10.048;2022-09-01T08:19:09;8.10;;;7.70;;
1134;SDS011;556;53.550;10.048;2022-09-01T08:21:56;7.40;;;7.20;;
1134;SDS011;556;53.550;10.048;2022-09-01T08:24:37;7.90;;;7.60;;
1134;SDS011;556;53.550;10.048;2022-09-01T08:27:04;8.80;;;8.50;;
1134;SDS011;556;53.550;10.048;2022-09-01T08:29:32;8.50;;;8.30;;
1134;SDS011;556;53.550;10.048;2022-09-01T08:32:00;9.77;;;9.20;;
1134;SDS011;556;53.550;10.048;2022-09-01T08:34:27;10.30;;;9.70;;
1134;SDS011;556;53.550;10.048;2022-09-01T08:36:58;14.77;;;13.57;;
1134;SDS011;556;53.550;10.048;2022-09-01T08:39:25;10.27;;;9.87;;
1134;SDS011;556;53.550;10.048;2022-09-01T08:41:55;10.13;;;9.83;;
1134;SDS011;556;53.550;10.048;2022-09-01T08:44:32;11.20;;;10.70;;
1134;SDS011;556;53.550;10.048;2022-09-01T08:47:08;10.53;;;10.23;;
1134;SDS011;556;53.550;10.048;2022-09-01T08:49:38;10.87;;;10.47;;
1134;SDS011;556;53.550;10.048;2022-09-01T08:52:25;10.73;;;10.23;;
1134;SDS011;556;53.550;10.048;2022-09-01T08:54:59;11.50;;;10.63;;
1134;SDS011;556;53.550;10.048;2022-09-01T08:57:32;11.10;;;10.70;;
1134;SDS011;556;53.550;10.048;2022-09-01T09:00:20;12.50;;;11.60;;
1134;SDS011;556;53.550;10.048;2022-09-01T09:02:54;10.80;;;10.50;;
1134;SDS011;556;53.550;10.048;2022-09-01T09:05:34;12.50;;;11.53;;
1134;SDS011;556;53.550;10.048;2022-09-01T09:08:19;12.53;;;12.07;;
1134;SDS011;556;53.550;10.048;2022-09-01T09:11:05;10.80;;;10.20;;
1134;SDS011;556;53.550;10.048;2022-09-01T09:13:40;10.67;;;10.27;;
1134;SDS011;556;53.550;10.048;2022-09-01T09:16:21;12.67;;;12.07;;
1134;SDS011;556;53.550;10.048;2022-09-01T09:18:52;10.90;;;10.50;;
1134;SDS011;556;53.550;10.048;2022-09-01T09:21:23;10.20;;;9.80;;
1134;SDS011;556;53.550;10.048;2022-09-01T09:23:55;10.60;;;10.20;;
1134;SDS011;556;53.550;10.048;2022-09-01T09:26:29;10.70;;;10.40;;
1134;SDS011;556;53.550;10.048;2022-09-01T09:28:56;11.47;;;11.07;;
1134;SDS011;556;53.550;10.048;2022-09-01T09:31:24;10.23;;;9.93;;
1134;SDS011;556;53.550;10.048;2022-09-01T09:33:52;12.30;;;11.87;;
1134;SDS011;556;53.550;10.048;2022-09-01T09:36:20;11.30;;;11.00;;
1134;SDS011;556;53.550;10.048;2022-09-01T09:39:05;11.03;;;10.73;;
1134;SDS011;556;53.550;10.048;2022-09-01T09:41:35;10.30;;;10.00;;
1134;SDS011;556;53.550;10.048;2022-09-01T09:44:04;10.27;;;9.97;;
1134;SDS011;556;53.550;10.048;2022-09-01T09:46:42;10.63;;;10.33;;
1134;SDS011;556;53.550;10.048;2022-09-01T09:49:14;10.60;;;10.20;;
1134;SDS011;556;53.550;10.048;2022-09-01T09:51:46;10.70;;;10.40;;
1134;SDS011;556;53.550;10.048;2022-09-01T09:54:21;11.13;;;10.83;;
1134;SDS011;556;53.550;10.048;2022-09-01T09:57:02;11.20;;;10.90;;
1134;SDS011;556;53.550;10.048;2022-09-01T09:59:36;11.90;;;11.30;;
1134;SDS011;556;53.550;10.048;2022-09-01T10:02:14;11.10;;;10.80;;
1134;SDS011;556;53.550;10.048;2022-09-01T10:04:50;11.20;;;10.90;;
1134;SDS011;556;53.550;10.048;2022-09-01T10:07:26;10.93;;;10.63;;
1134;SDS011;556;53.550;10.048;2022-09-01T10:10:00;11.93;;;11.50;;
1134;SDS011;556;53.550;10.048;2022-09-01T10:12:30;11.00;;;10.70;;
1134;SDS011;556;53.550;10.048;2022-09-01T10:14:59;11.57;;;11.17;;
1134;SDS011;556;53.550;10.048;2022-09-01T10:17:30;11.73;;;11.33;;
1134;SDS011;556;53.550;10.048;2022-09-01T10:20:02;11.00;;;10.70;;
1134;SDS011;556;53.550;10.048;2022-09-01T10:22:34;11.13;;;10.83;;
1134;SDS011;556;53.550;10.048;2022-09-01T10:25:04;11.20;;;10.80;;
1134;SDS011;556;53.550;10.048;2022-09-01T10:27:34;12.03;;;11.63;;
1134;SDS011;556;53.550;10.048;2022-09-01T10:30:04;10.80;;;10.50;;
1134;SDS011;556;53.550;10.048;2022-09-01T10:32:36;11.97;;;11.57;;
1134;SDS011;556;53.550;10.048;2022-09-01T10:35:06;12.93;;;12.43;;
1134;SDS011;556;53.550;10.048;2022-09-01T10:37:38;13.37;;;12.77;;
1134;SDS011;556;53.550;10.048;2022-09-01T10:40:16;11.77;;;11.37;;
1134;SDS011;556;53.550;10.048;2022-09-01T10:42:46;11.80;;;11.40;;
1134;SDS011;556;53.550;10.048;2022-09-01T10:45:19;13.40;;;12.90;;
1134;SDS011;556;53.550;10.048;2022-09-01T10:48:07;12.30;;;12.00;;
1134;SDS011;556;53.550;10.048;2022-09-01T10:50:50;13.90;;;13.40;;
1134;SDS011;556;53.550;10.048;2022-09-01T10:53:37;12.17;;;11.80;;
1134;SDS011;556;53.550;10.048;2022-09-01T10:56:07;13.47;;;12.87;;
1134;SDS011;556;53.550;10.048;2022-09-01T10:58:45;13.37;;;12.87;;
1134;SDS011;556;53.550;10.048;2022-09-01T11:07:29;13.27;;;12.77;;
1134;SDS011;556;53.550;10.048;2022-09-01T11:13:06;13.20;;;12.80;;
1134;SDS011;556;53.550;10.048;2022-09-01T11:15:50;12.60;;;12.20;;
1134;SDS011;556;53.550;10.048;2022-09-01T11:18:23;12.37;;;11.97;;
1134;SDS011;556;53.550;10.048;2022-09-01T11:20:53;11.97;;;11.67;;
1134;SDS011;556;53.550;10.048;2022-09-01T11:23:39;12.90;;;11.70;;
1134;SDS011;556;53.550;10.048;2022-09-01T11:29:07;11.90;;;11.50;;
1134;SDS011;556;53.550;10.048;2022-09-01T11:31:54;14.27;;;13.57;;
1134;SDS011;556;53.550;10.048;2022-09-01T11:34:22;11.80;;;11.50;;
1134;SDS011;556;53.550;10.048;2022-09-01T11:36:57;12.17;;;11.80;;
1134;SDS011;556;53.550;10.048;2022-09-01T11:39:41;11.70;;;11.40;;
1134;SDS011;556;53.550;10.048;2022-09-01T11:42:16;12.47;;;11.97;;
1134;SDS011;556;53.550;10.048;2022-09-01T11:44:48;13.07;;;12.27;;
1134;SDS011;556;53.550;10.048;2022-09-01T11:47:20;13.13;;;12.57;;
1134;SDS011;556;53.550;10.048;2022-09-01T11:49:52;12.07;;;11.77;;
1134;SDS011;556;53.550;10.048;2022-09-01T11:52:22;11.73;;;11.33;;
1134;SDS011;556;53.550;10.048;2022-09-01T11:54:51;12.17;;;11.77;;
1134;SDS011;556;53.550;10.048;2022-09-01T11:57:24;12.00;;;11.60;;
1134;SDS011;556;53.550;10.048;2022-09-01T11:59:55;12.10;;;11.70;;
1134;SDS011;556;53.550;10.048;2022-09-01T12:02:25;12.50;;;12.10;;
1134;SDS011;556;53.550;10.048;2022-09-01T12:04:56;14.70;;;14.00;;
1134;SDS011;556;53.550;10.048;2022-09-01T12:07:33;12.53;;;12.10;;
1134;SDS011;556;53.550;10.048;2022-09-01T12:10:12;13.10;;;12.50;;
1134;SDS011;556;53.550;10.048;2022-09-01T12:12:42;13.97;;;13.37;;
1134;SDS011;556;53.550;10.048;2022-09-01T12:15:20;13.20;;;12.70;;
1134;SDS011;556;53.550;10.048;2022-09-01T12:17:48;13.40;;;12.80;;
1134;SDS011;556;53.550;10.048;2022-09-01T12:20:24;12.83;;;12.23;;
1134;SDS011;556;53.550;10.048;2022-09-01T12:22:53;13.03;;;12.57;;
1134;SDS011;556;53.550;10.048;2022-09-01T12:25:22;15.23;;;14.43;;
1134;SDS011;556;53.550;10.048;2022-09-01T12:27:51;13.70;;;13.10;;
1134;SDS011;556;53.550;10.048;2022-09-01T12:30:21;13.20;;;12.80;;
1134;SDS011;556;53.550;10.048;2022-09-01T12:32:49;16.00;;;15.10;;
1134;SDS011;556;53.550;10.048;2022-09-01T12:35:18;14.50;;;14.00;;
1134;SDS011;556;53.550;10.048;2022-09-01T12:37:48;12.47;;;12.07;;
1134;SDS011;556;53.550;10.048;2022-09-01T12:40:24;13.23;;;12.40;;
1134;SDS011;556;53.550;10.048;2022-09-01T12:43:00;13.67;;;13.07;;
1134;SDS011;556;53.550;10.048;2022-09-01T12:45:41;12.97;;;12.47;;
1134;SDS011;556;53.550;10.048;2022-09-01T12:48:23;13.40;;;12.80;;
1134;SDS011;556;53.550;10.048;2022-09-01T12:50:53;12.57;;;12.10;;
1134;SDS011;556;53.550;10.048;2022-09-01T12:53:24;13.03;;;12.63;;
1134;SDS011;556;53.550;10.048;2022-09-01T12:55:58;12.90;;;12.50;;
1134;SDS011;556;53.550;10.048;2022-09-01T12:58:29;12.77;;;12.30;;
1134;SDS011;556;53.550;10.048;2022-09-01T13:01:00;12.13;;;11.73;;
1134;SDS011;556;53.550;10.048;2022-09-01T13:03:30;16.37;;;15.67;;
1134;SDS011;556;53.550;10.048;2022-09-01T13:05:58;12.03;;;11.57;;
1134;SDS011;556;53.550;10.048;2022-09-01T13:08:26;11.77;;;11.37;;
1134;SDS011;556;53.550;10.048;2022-09-01T13:10:55;12.20;;;11.70;;
1134;SDS011;556;53.550;10.048;2022-09-01T13:13:25;11.35;;;11.05;;
1134;SDS011;556;53.550;10.048;2022-09-01T13:15:53;12.20;;;11.73;;
1134;SDS011;556;53.550;10.048;2022-09-01T13:18:25;11.75;;;11.35;;
1134;SDS011;556;53.550;10.048;2022-09-01T13:20:54;12.35;;;11.55;;
1134;SDS011;556;53.550;10.048;2022-09-01T13:23:22;13.20;;;12.63;;
1134;SDS011;556;53.550;10.048;2022-09-01T13:25:49;11.30;;;10.90;;
1134;SDS011;556;53.550;10.048;2022-09-01T13:28:17;11.82;;;11.43;;
1134;SDS011;556;53.550;10.048;2022-09-01T13:30:46;11.30;;;10.82;;
1134;SDS011;556;53.550;10.048;2022-09-01T13:33:18;11.50;;;11.00;;
1134;SDS011;556;53.550;10.048;2022-09-01T13:35:46;11.20;;;10.80;;
1134;SDS011;556;53.550;10.048;2022-09-01T13:38:14;11.27;;;10.60;;
1134;SDS011;556;53.550;10.048;2022-09-01T13:40:41;11.18;;;10.77;;
1134;SDS011;556;53.550;10.048;2022-09-01T13:43:11;11.32;;;10.93;;
1134;SDS011;556;53.550;10.048;2022-09-01T13:45:39;11.60;;;11.27;;
1134;SDS011;556;53.550;10.048;2022-09-01T13:48:06;12.43;;;11.82;;
1134;SDS011;556;53.550;10.048;2022-09-01T13:50:35;12.23;;;11.80;;
1134;SDS011;556;53.550;10.048;2022-09-01T13:53:04;11.80;;;11.50;;
1134;SDS011;556;53.550;10.048;2022-09-01T13:55:33;12.73;;;12.02;;
1134;SDS011;556;53.550;10.048;2022-09-01T13:58:03;12.90;;;12.50;;
1134;SDS011;556;53.550;10.048;2022-09-01T14:00:31;12.00;;;11.60;;
1134;SDS011;556;53.550;10.048;2022-09-01T14:03:02;12.93;;;12.53;;
1134;SDS011;556;53.550;10.048;2022-09-01T14:05:32;13.10;;;12.70;;
1134;SDS011;556;53.550;10.048;2022-09-01T14:08:01;12.30;;;11.93;;
1134;SDS011;556;53.550;10.048;2022-09-01T14:10:31;12.40;;;12.00;;
1134;SDS011;556;53.550;10.048;2022-09-01T14:12:59;13.60;;;13.00;;
1134;SDS011;556;53.550;10.048;2022-09-01T14:15:26;12.57;;;11.80;;
1134;SDS011;556;53.550;10.048;2022-09-01T14:17:55;11.87;;;11.50;;
1134;SDS011;556;53.550;10.048;2022-09-01T14:20:25;13.60;;;13.20;;
1134;SDS011;556;53.550;10.048;2022-09-01T14:22:55;12.80;;;12.00;;
1134;SDS011;556;53.550;10.048;2022-09-01T14:25:23;13.10;;;12.50;;
1134;SDS011;556;53.550;10.048;2022-09-01T14:27:52;12.50;;;12.10;;
1134;SDS011;556;53.550;10.048;2022-09-01T14:30:22;12.60;;;12.20;;
1134;SDS011;556;53.550;10.048;2022-09-01T14:32:51;13.10;;;12.60;;
1134;SDS011;556;53.550;10.048;2022-09-01T14:35:19;11.60;;;11.30;;
1134;SDS011;556;53.550;10.048;2022-09-01T14:37:50;12.57;;;12.17;;
1134;SDS011;556;53.550;10.048;2022-09-01T14:40:19;11.33;;;11.03;;
1134;SDS011;556;53.550;10.048;2022-09-01T14:42:49;11.27;;;10.87;;
1134;SDS011;556;53.550;10.048;2022-09-01T14:45:19;12.30;;;11.70;;
1134;SDS011;556;53.550;10.048;2022-09-01T14:47:49;11.70;;;11.30;;
1134;SDS011;556;53.550;10.048;2022-09-01T14:50:19;11.60;;;11.20;;
1134;SDS011;556;53.550;10.048;2022-09-01T14:52:48;11.57;;;10.98;;
1134;SDS011;556;53.550;10.048;2022-09-01T14:55:17;11.93;;;11.35;;
1134;SDS011;556;53.550;10.048;2022-09-01T14:57:44;11.55;;;11.25;;
1134;SDS011;556;53.550;10.048;2022-09-01T15:00:12;10.90;;;10.60;;
1134;SDS011;556;53.550;10.048;2022-09-01T15:02:41;11.25;;;10.85;;
1134;SDS011;556;53.550;10.048;2022-09-01T15:05:10;10.70;;;10.40;;
1134;SDS011;556;53.550;10.048;2022-09-01T15:07:38;10.63;;;10.32;;
1134;SDS011;556;53.550;10.048;2022-09-01T15:10:06;10.30;;;10.00;;
1134;SDS011;556;53.550;10.048;2022-09-01T15:12:35;11.38;;;10.98;;
1134;SDS011;556;53.550;10.048;2022-09-01T15:15:04;11.18;;;10.88;;
1134;SDS011;556;53.550;10.048;2022-09-01T15:17:36;11.45;;;11.15;;
1134;SDS011;556;53.550;10.048;2022-09-01T15:20:05;11.48;;;11.18;;
1134;SDS011;556;53.550;10.048;2022-09-01T15:22:51;11.30;;;10.90;;
1134;SDS011;556;53.550;10.048;2022-09-01T15:25:18;11.73;;;11.40;;
1134;SDS011;556;53.550;10.048;2022-09-01T15:27:45;11.60;;;11.20;;
1134;SDS011;556;53.550;10.048;2022-09-01T15:30:12;11.77;;;11.20;;
1134;SDS011;556;53.550;10.048;2022-09-01T15:32:41;11.60;;;11.20;;
1134;SDS011;556;53.550;10.048;2022-09-01T15:35:10;11.40;;;11.00;;